createdAt,value
2023-04-09T00:00:28.232Z,77.1
2023-04-09T00:01:28.523Z,77.1
2023-04-09T00:02:28.220Z,77.1
2023-04-09T00:03:28.348Z,77.1
2023-04-09T00:04:28.258Z,77.1
2023-04-09T00:05:28.221Z,77.1
2023-04-09T00:06:43.663Z,77.1
2023-04-09T00:07:28.243Z,77.1
2023-04-09T00:08:28.281Z,77.1
2023-04-09T00:09:28.180Z,77.1
2023-04-09T00:10:28.330Z,77.1
2023-04-09T00:11:28.182Z,77.1
2023-04-09T00:12:28.267Z,77.1
2023-04-09T00:13:36.066Z,77.1
2023-04-09T00:14:28.183Z,77.1
2023-04-09T00:15:42.264Z,77.2
2023-04-09T00:16:28.210Z,77.2
2023-04-09T00:17:28.263Z,77.2
2023-04-09T00:18:28.187Z,77.2
2023-04-09T00:19:28.191Z,77.2
2023-04-09T00:20:28.234Z,77.2
2023-04-09T00:21:28.395Z,77.2
2023-04-09T00:22:28.879Z,77.2
2023-04-09T00:23:28.970Z,77.2
2023-04-09T00:24:28.827Z,77.2
2023-04-09T00:25:28.891Z,77.2
2023-04-09T00:26:28.171Z,77.2
2023-04-09T00:27:28.160Z,77.2
2023-04-09T00:28:28.185Z,77.2
2023-04-09T00:29:28.180Z,77.2
2023-04-09T00:30:28.524Z,77.2
2023-04-09T00:31:28.250Z,77.2
2023-04-09T00:32:28.176Z,77.2
2023-04-09T00:33:28.152Z,77.2
2023-04-09T00:34:28.149Z,77.2
2023-04-09T00:35:28.255Z,77.2
2023-04-09T00:36:28.269Z,77.2
2023-04-09T00:37:28.185Z,77.3
2023-04-09T00:38:28.170Z,77.3
2023-04-09T00:39:28.165Z,77.3
2023-04-09T00:40:28.181Z,77.3
2023-04-09T00:41:28.161Z,77.3
2023-04-09T00:42:28.104Z,77.4
2023-04-09T00:43:28.183Z,77.4
2023-04-09T00:44:28.135Z,77.4
2023-04-09T00:45:28.233Z,77.4
2023-04-09T00:46:28.350Z,77.4
2023-04-09T00:47:28.290Z,77.4
2023-04-09T00:48:28.160Z,77.4
2023-04-09T00:49:28.105Z,77.4
2023-04-09T00:50:28.191Z,77.4
2023-04-09T00:51:28.093Z,77.4
2023-04-09T00:52:28.195Z,77.4
2023-04-09T00:53:28.120Z,77.4
2023-04-09T00:54:28.115Z,77.4
2023-04-09T00:55:28.167Z,77.4
2023-04-09T00:56:28.133Z,77.4
2023-04-09T00:57:28.150Z,77.4
2023-04-09T00:58:28.210Z,77.4
2023-04-09T00:59:28.110Z,77.4
2023-04-09T01:00:28.124Z,77.4
2023-04-09T01:01:28.169Z,77.4
2023-04-09T01:02:28.240Z,77.4
2023-04-09T01:03:28.164Z,77.4
2023-04-09T01:04:28.064Z,77.4
2023-04-09T01:05:28.141Z,77.4
2023-04-09T01:06:28.104Z,77.4
2023-04-09T01:07:28.081Z,77.4
2023-04-09T01:08:28.146Z,77.4
2023-04-09T01:09:28.183Z,77.4
2023-04-09T01:10:28.106Z,77.4
2023-04-09T01:11:28.107Z,77.4
2023-04-09T01:12:28.089Z,77.4
2023-04-09T01:13:28.112Z,77.4
2023-04-09T01:14:28.116Z,77.4
2023-04-09T01:15:28.076Z,77.4
2023-04-09T01:16:28.149Z,77.5
2023-04-09T01:17:28.111Z,77.5
2023-04-09T01:18:28.075Z,77.5
2023-04-09T01:19:28.078Z,77.5
2023-04-09T01:20:28.259Z,77.4
2023-04-09T01:21:28.082Z,77.5
2023-04-09T01:22:28.047Z,77.5
2023-04-09T01:23:28.059Z,77.5
2023-04-09T01:24:28.123Z,77.5
2023-04-09T01:25:28.120Z,77.5
2023-04-09T01:26:28.021Z,77.5
2023-04-09T01:27:28.041Z,77.5
2023-04-09T01:28:28.069Z,77.5
2023-04-09T01:29:28.096Z,77.5
2023-04-09T01:30:28.135Z,77.5
2023-04-09T01:31:28.010Z,77.6
2023-04-09T01:32:28.129Z,77.5
2023-04-09T01:33:28.027Z,77.5
2023-04-09T01:34:28.058Z,77.6
2023-04-09T01:35:28.210Z,77.5
2023-04-09T01:36:28.046Z,77.6
2023-04-09T01:37:28.096Z,77.6
2023-04-09T01:38:28.026Z,77.6
2023-04-09T01:39:28.038Z,77.6
2023-04-09T01:40:28.102Z,77.6
2023-04-09T01:41:28.059Z,77.6
2023-04-09T01:42:28.198Z,77.6
2023-04-09T01:43:28.047Z,77.6
2023-04-09T01:44:28.042Z,77.6
2023-04-09T01:45:28.059Z,77.6
2023-04-09T01:46:28.430Z,77.6
2023-04-09T01:47:29.121Z,77.6
2023-04-09T01:48:28.026Z,77.6
2023-04-09T01:49:28.097Z,77.6
2023-04-09T01:50:28.040Z,77.6
2023-04-09T01:51:28.142Z,77.6
2023-04-09T01:52:28.015Z,77.6
2023-04-09T01:53:28.173Z,77.6
2023-04-09T01:54:28.022Z,77.6
2023-04-09T01:55:27.995Z,77.6
2023-04-09T01:56:28.016Z,77.6
2023-04-09T01:57:28.035Z,77.6
2023-04-09T01:58:28.031Z,77.6
2023-04-09T01:59:28.068Z,77.6
2023-04-09T02:00:27.976Z,77.6
2023-04-09T02:01:28.152Z,77.6
2023-04-09T02:02:28.078Z,77.7
2023-04-09T02:03:28.092Z,77.7
2023-04-09T02:04:28.189Z,77.7
2023-04-09T02:05:27.995Z,77.7
2023-04-09T02:06:27.998Z,77.7
2023-04-09T02:07:27.988Z,77.7
2023-04-09T02:08:28.023Z,77.7
2023-04-09T02:09:28.014Z,77.7
2023-04-09T02:10:27.970Z,77.7
2023-04-09T02:11:27.941Z,77.7
2023-04-09T02:12:28.026Z,77.7
2023-04-09T02:13:28.078Z,77.7
2023-04-09T02:14:27.987Z,77.7
2023-04-09T02:15:28.189Z,77.7
2023-04-09T02:16:27.967Z,77.8
2023-04-09T02:17:28.050Z,77.8
2023-04-09T02:18:27.974Z,77.8
2023-04-09T02:19:28.027Z,77.8
2023-04-09T02:20:28.016Z,77.8
2023-04-09T02:21:28.016Z,77.8
2023-04-09T02:22:27.951Z,77.8
2023-04-09T02:23:27.961Z,77.8
2023-04-09T02:24:27.953Z,77.8
2023-04-09T02:25:28.020Z,77.8
2023-04-09T02:26:28.219Z,77.8
2023-04-09T02:27:27.947Z,77.8
2023-04-09T02:28:27.967Z,77.8
2023-04-09T02:29:27.978Z,77.8
2023-04-09T02:30:27.994Z,77.8
2023-04-09T02:31:28.042Z,77.8
2023-04-09T02:32:27.941Z,77.8
2023-04-09T02:33:27.930Z,77.8
2023-04-09T02:34:27.963Z,77.8
2023-04-09T02:35:27.957Z,77.8
2023-04-09T02:36:27.968Z,77.8
2023-04-09T02:37:28.239Z,77.8
2023-04-09T02:38:27.900Z,77.9
2023-04-09T02:39:27.957Z,77.8
2023-04-09T02:40:27.925Z,77.8
2023-04-09T02:41:27.947Z,77.8
2023-04-09T02:42:27.934Z,77.8
2023-04-09T02:43:27.985Z,77.9
2023-04-09T02:44:27.918Z,77.8
2023-04-09T02:45:27.951Z,77.9
2023-04-09T02:46:27.963Z,77.9
2023-04-09T02:47:28.175Z,77.9
2023-04-09T02:48:28.357Z,77.9
2023-04-09T02:49:27.988Z,77.9
2023-04-09T02:50:29.395Z,77.8
2023-04-09T02:51:27.905Z,77.8
2023-04-09T02:52:27.932Z,77.8
2023-04-09T02:53:27.910Z,77.8
2023-04-09T02:54:27.910Z,77.8
2023-04-09T02:55:27.908Z,77.8
2023-04-09T02:56:27.905Z,77.8
2023-04-09T02:57:27.908Z,77.8
2023-04-09T02:58:27.884Z,77.8
2023-04-09T02:59:28.063Z,77.8
2023-04-09T03:00:27.936Z,77.8
2023-04-09T03:01:27.913Z,77.8
2023-04-09T03:02:28.097Z,77.8
2023-04-09T03:03:28.170Z,77.8
2023-04-09T03:04:27.900Z,77.9
2023-04-09T03:05:27.908Z,77.9
2023-04-09T03:06:27.917Z,77.9
2023-04-09T03:07:27.930Z,77.9
2023-04-09T03:08:27.878Z,77.9
2023-04-09T03:09:27.926Z,77.9
2023-04-09T03:10:28.378Z,77.9
2023-04-09T03:11:27.870Z,78.0
2023-04-09T03:12:27.994Z,78.0
2023-04-09T03:13:27.884Z,78.0
2023-04-09T03:14:27.914Z,78.0
2023-04-09T03:15:27.851Z,78.0
2023-04-09T03:16:27.861Z,78.0
2023-04-09T03:17:27.935Z,78.0
2023-04-09T03:18:27.904Z,78.0
2023-04-09T03:19:27.845Z,78.0
2023-04-09T03:20:27.871Z,78.1
2023-04-09T03:21:28.242Z,78.1
2023-04-09T03:22:27.830Z,78.0
2023-04-09T03:23:27.884Z,78.0
2023-04-09T03:24:27.830Z,78.0
2023-04-09T03:25:27.879Z,78.0
2023-04-09T03:26:27.857Z,78.1
2023-04-09T03:27:27.991Z,78.1
2023-04-09T03:28:27.819Z,78.1
2023-04-09T03:29:27.834Z,78.1
2023-04-09T03:30:27.933Z,78.1
2023-04-09T03:31:27.924Z,78.1
2023-04-09T03:32:28.133Z,78.1
2023-04-09T03:33:27.866Z,78.1
2023-04-09T03:34:27.832Z,78.1
2023-04-09T03:35:27.905Z,78.1
2023-04-09T03:36:27.874Z,78.1
2023-04-09T03:37:27.889Z,78.1
2023-04-09T03:38:27.853Z,78.1
2023-04-09T03:39:27.799Z,78.1
2023-04-09T03:40:27.856Z,78.1
2023-04-09T03:41:27.930Z,78.1
2023-04-09T03:42:27.838Z,78.1
2023-04-09T03:43:27.986Z,78.1
2023-04-09T03:44:27.816Z,78.1
2023-04-09T03:45:27.842Z,78.0
2023-04-09T03:46:27.856Z,78.1
2023-04-09T03:47:27.869Z,78.0
2023-04-09T03:48:28.332Z,78.0
2023-04-09T03:49:28.206Z,78.1
2023-04-09T03:50:27.968Z,78.0
2023-04-09T03:51:27.834Z,78.0
2023-04-09T03:52:27.813Z,78.0
2023-04-09T03:53:27.794Z,78.0
2023-04-09T03:54:27.969Z,78.0
2023-04-09T03:55:27.855Z,78.0
2023-04-09T03:56:27.820Z,78.0
2023-04-09T03:57:27.832Z,78.1
2023-04-09T03:58:27.800Z,78.1
2023-04-09T03:59:27.867Z,78.1
2023-04-09T04:00:27.875Z,78.1
2023-04-09T04:01:27.754Z,78.1
2023-04-09T04:02:27.943Z,78.0
2023-04-09T04:03:27.882Z,78.0
2023-04-09T04:04:27.858Z,78.0
2023-04-09T04:05:27.992Z,78.0
2023-04-09T04:06:27.830Z,78.0
2023-04-09T04:07:27.775Z,78.0
2023-04-09T04:08:27.758Z,78.0
2023-04-09T04:09:27.764Z,78.0
2023-04-09T04:10:27.884Z,78.1
2023-04-09T04:11:27.759Z,78.1
2023-04-09T04:12:27.773Z,78.1
2023-04-09T04:13:27.831Z,78.1
2023-04-09T04:14:27.757Z,78.1
2023-04-09T04:15:27.794Z,78.1
2023-04-09T04:16:27.920Z,78.1
2023-04-09T04:17:27.843Z,78.1
2023-04-09T04:18:27.745Z,78.1
2023-04-09T04:19:27.821Z,78.1
2023-04-09T04:20:27.755Z,78.2
2023-04-09T04:21:27.763Z,78.1
2023-04-09T04:22:27.789Z,78.1
2023-04-09T04:23:27.711Z,78.1
2023-04-09T04:24:27.721Z,78.1
2023-04-09T04:25:27.750Z,78.2
2023-04-09T04:26:27.773Z,78.2
2023-04-09T04:27:27.908Z,78.2
2023-04-09T04:28:27.757Z,78.2
2023-04-09T04:29:27.740Z,78.2
2023-04-09T04:30:27.713Z,78.2
2023-04-09T04:31:27.790Z,78.2
2023-04-09T04:32:27.802Z,78.2
2023-04-09T04:33:27.707Z,78.2
2023-04-09T04:34:27.745Z,78.2
2023-04-09T04:35:27.761Z,78.2
2023-04-09T04:36:27.765Z,78.2
2023-04-09T04:37:27.817Z,78.2
2023-04-09T04:38:28.452Z,78.2
2023-04-09T04:39:28.594Z,78.2
2023-04-09T04:40:28.443Z,78.2
2023-04-09T04:41:28.375Z,78.2
2023-04-09T04:42:28.634Z,78.2
2023-04-09T04:43:28.399Z,78.3
2023-04-09T04:44:27.720Z,78.3
2023-04-09T04:45:27.889Z,78.3
2023-04-09T04:46:27.763Z,78.3
2023-04-09T04:47:27.748Z,78.3
2023-04-09T04:48:27.732Z,78.3
2023-04-09T04:49:27.707Z,78.3
2023-04-09T04:50:27.831Z,78.3
2023-04-09T04:51:27.725Z,78.3
2023-04-09T04:52:27.684Z,78.3
2023-04-09T04:53:27.700Z,78.3
2023-04-09T04:54:27.889Z,78.3
2023-04-09T04:55:27.714Z,78.3
2023-04-09T04:56:27.702Z,78.3
2023-04-09T04:57:27.652Z,78.3
2023-04-09T04:58:27.676Z,78.3
2023-04-09T04:59:27.684Z,78.3
2023-04-09T05:00:27.632Z,78.3
2023-04-09T05:01:27.688Z,78.3
2023-04-09T05:02:27.786Z,78.3
2023-04-09T05:03:27.887Z,78.3
2023-04-09T05:04:27.686Z,78.3
2023-04-09T05:05:27.681Z,78.3
2023-04-09T05:06:27.913Z,78.3
2023-04-09T05:07:27.663Z,78.3
2023-04-09T05:08:27.634Z,78.4
2023-04-09T05:09:27.677Z,78.4
2023-04-09T05:10:27.666Z,78.4
2023-04-09T05:11:27.682Z,78.4
2023-04-09T05:12:27.665Z,78.4
2023-04-09T05:13:27.690Z,78.4
2023-04-09T05:14:27.630Z,78.4
2023-04-09T05:15:27.669Z,78.4
2023-04-09T05:16:27.653Z,78.4
2023-04-09T05:17:27.763Z,78.4
2023-04-09T05:18:27.704Z,78.4
2023-04-09T05:19:27.644Z,78.4
2023-04-09T05:20:27.648Z,78.5
2023-04-09T05:21:27.702Z,78.5
2023-04-09T05:22:27.835Z,78.5
2023-04-09T05:23:27.625Z,78.5
2023-04-09T05:24:27.653Z,78.6
2023-04-09T05:25:27.612Z,78.5
2023-04-09T05:26:27.666Z,78.5
2023-04-09T05:27:27.706Z,78.6
2023-04-09T05:28:27.779Z,78.6
2023-04-09T05:29:27.645Z,78.6
2023-04-09T05:30:27.714Z,78.6
2023-04-09T05:31:27.621Z,78.5
2023-04-09T05:32:27.764Z,78.5
2023-04-09T05:33:27.646Z,78.5
2023-04-09T05:34:27.610Z,78.6
2023-04-09T05:35:27.612Z,78.6
2023-04-09T05:36:27.621Z,78.6
2023-04-09T05:37:27.725Z,78.6
2023-04-09T05:38:27.640Z,78.6
2023-04-09T05:39:27.793Z,78.6
2023-04-09T05:40:27.600Z,78.6
2023-04-09T05:41:27.594Z,78.6
2023-04-09T05:42:27.621Z,78.6
2023-04-09T05:43:27.632Z,78.6
2023-04-09T05:44:27.666Z,78.6
2023-04-09T05:45:27.614Z,78.6
2023-04-09T05:46:27.785Z,78.6
2023-04-09T05:47:27.624Z,78.6
2023-04-09T05:48:27.615Z,78.6
2023-04-09T05:49:27.593Z,78.6
2023-04-09T05:50:27.731Z,78.6
2023-04-09T05:51:27.573Z,78.6
2023-04-09T05:52:28.399Z,78.6
2023-04-09T05:53:28.341Z,78.6
2023-04-09T05:54:28.311Z,78.6
2023-04-09T05:55:28.340Z,78.6
2023-04-09T05:56:28.278Z,78.6
2023-04-09T05:57:28.394Z,78.6
2023-04-09T05:58:28.294Z,78.7
2023-04-09T05:59:28.366Z,78.7
2023-04-09T06:00:28.326Z,78.7
2023-04-09T06:01:28.318Z,78.7
2023-04-09T06:02:28.336Z,78.7
2023-04-09T06:03:28.386Z,78.7
2023-04-09T06:04:28.376Z,78.7
2023-04-09T06:05:28.290Z,78.8
2023-04-09T06:06:28.330Z,78.8
2023-04-09T06:07:28.248Z,78.8
2023-04-09T06:08:28.257Z,78.8
2023-04-09T06:09:28.256Z,78.7
2023-04-09T06:10:28.302Z,78.7
2023-04-09T06:11:28.283Z,78.8
2023-04-09T06:12:28.253Z,78.8
2023-04-09T06:13:28.248Z,78.8
2023-04-09T06:14:28.286Z,78.7
2023-04-09T06:15:28.271Z,78.7
2023-04-09T06:16:28.352Z,78.7
2023-04-09T06:17:28.332Z,78.8
2023-04-09T06:18:27.524Z,78.8
2023-04-09T06:19:27.563Z,78.8
2023-04-09T06:20:27.559Z,78.8
2023-04-09T06:21:27.540Z,78.8
2023-04-09T06:22:27.579Z,78.8
2023-04-09T06:23:27.549Z,78.8
2023-04-09T06:24:27.567Z,78.8
2023-04-09T06:25:27.514Z,78.8
2023-04-09T06:26:27.521Z,78.8
2023-04-09T06:27:27.535Z,78.8
2023-04-09T06:28:27.578Z,78.9
2023-04-09T06:29:27.563Z,78.9
2023-04-09T06:30:27.540Z,78.9
2023-04-09T06:31:27.572Z,78.9
2023-04-09T06:32:27.594Z,78.9
2023-04-09T06:33:27.574Z,78.8
2023-04-09T06:34:27.927Z,78.8
2023-04-09T06:35:27.538Z,78.8
2023-04-09T06:36:27.493Z,78.8
2023-04-09T06:37:27.485Z,78.8
2023-04-09T06:38:27.515Z,78.8
2023-04-09T06:39:27.530Z,78.8
2023-04-09T06:40:27.557Z,78.8
2023-04-09T06:41:27.486Z,78.8
2023-04-09T06:42:27.482Z,78.8
2023-04-09T06:43:27.569Z,78.8
2023-04-09T06:44:27.548Z,78.8
2023-04-09T06:45:28.726Z,78.8
2023-04-09T06:46:27.532Z,78.8
2023-04-09T06:47:27.514Z,78.8
2023-04-09T06:48:27.478Z,78.8
2023-04-09T06:49:27.508Z,78.8
2023-04-09T06:50:27.537Z,78.8
2023-04-09T06:51:27.503Z,78.8
2023-04-09T06:52:27.493Z,78.8
2023-04-09T06:53:27.527Z,78.8
2023-04-09T06:54:27.537Z,78.8
2023-04-09T06:55:27.504Z,78.9
2023-04-09T06:56:27.497Z,78.9
2023-04-09T06:57:27.510Z,78.9
2023-04-09T06:58:27.445Z,78.9
2023-04-09T06:59:27.502Z,78.9
2023-04-09T07:00:27.513Z,78.9
2023-04-09T07:01:27.467Z,78.9
2023-04-09T07:02:28.000Z,78.9
2023-04-09T07:03:27.833Z,78.9
2023-04-09T07:04:27.628Z,78.9
2023-04-09T07:05:27.471Z,78.9
2023-04-09T07:06:27.421Z,78.9
2023-04-09T07:07:27.475Z,78.9
2023-04-09T07:08:27.530Z,78.9
2023-04-09T07:09:27.494Z,78.9
2023-04-09T07:10:28.130Z,79.0
2023-04-09T07:11:28.180Z,79.0
2023-04-09T07:12:28.280Z,79.0
2023-04-09T07:14:27.491Z,78.9
2023-04-09T07:15:27.468Z,78.9
2023-04-09T07:16:27.469Z,78.9
2023-04-09T07:17:27.474Z,78.9
2023-04-09T07:18:27.455Z,78.9
2023-04-09T07:19:27.500Z,79.0
2023-04-09T07:20:27.467Z,79.0
2023-04-09T07:21:27.417Z,78.9
2023-04-09T07:22:27.479Z,79.0
2023-04-09T07:23:27.542Z,79.0
2023-04-09T07:24:27.472Z,79.0
2023-04-09T07:25:27.471Z,79.0
2023-04-09T07:26:27.410Z,79.0
2023-04-09T07:27:27.541Z,79.0
2023-04-09T07:28:27.405Z,79.0
2023-04-09T07:29:27.468Z,79.0
2023-04-09T07:30:27.532Z,79.0
2023-04-09T07:31:27.493Z,79.0
2023-04-09T07:32:27.488Z,79.0
2023-04-09T07:33:27.442Z,79.0
2023-04-09T07:34:27.557Z,79.0
2023-04-09T07:35:27.448Z,79.0
2023-04-09T07:36:27.375Z,79.0
2023-04-09T07:37:27.430Z,79.0
2023-04-09T07:38:27.444Z,79.0
2023-04-09T07:39:27.425Z,79.1
2023-04-09T07:40:27.400Z,79.1
2023-04-09T07:41:27.561Z,79.1
2023-04-09T07:42:27.600Z,79.1
2023-04-09T07:43:27.496Z,79.1
2023-04-09T07:44:27.449Z,79.1
2023-04-09T07:45:27.391Z,79.1
2023-04-09T07:46:27.496Z,79.1
2023-04-09T07:47:27.390Z,79.1
2023-04-09T07:48:27.452Z,79.1
2023-04-09T07:49:27.424Z,79.1
2023-04-09T07:50:27.422Z,79.1
2023-04-09T07:51:27.428Z,79.2
2023-04-09T07:52:27.404Z,79.2
2023-04-09T07:53:27.412Z,79.2
2023-04-09T07:54:27.465Z,79.1
2023-04-09T07:55:27.383Z,79.1
2023-04-09T07:56:27.410Z,79.1
2023-04-09T07:57:27.382Z,79.1
2023-04-09T07:58:27.367Z,79.1
2023-04-09T07:59:27.427Z,79.1
2023-04-09T08:00:27.386Z,79.1
2023-04-09T08:01:27.444Z,79.1
2023-04-09T08:02:27.631Z,79.2
2023-04-09T08:03:27.598Z,79.2
2023-04-09T08:04:27.548Z,79.2
2023-04-09T08:05:27.378Z,79.2
2023-04-09T08:06:27.343Z,79.2
2023-04-09T08:07:27.534Z,79.1
2023-04-09T08:08:27.512Z,79.1
2023-04-09T08:09:27.463Z,79.1
2023-04-09T08:10:27.400Z,79.1
2023-04-09T08:11:27.339Z,79.1
2023-04-09T08:12:27.422Z,79.2
2023-04-09T08:13:27.347Z,79.2
2023-04-09T08:14:27.389Z,79.2
2023-04-09T08:15:27.311Z,79.2
2023-04-09T08:16:27.492Z,79.2
2023-04-09T08:17:27.458Z,79.2
2023-04-09T08:18:27.489Z,79.1
2023-04-09T08:19:27.519Z,79.1
2023-04-09T08:20:27.442Z,79.2
2023-04-09T08:21:27.436Z,79.2
2023-04-09T08:22:27.381Z,79.2
2023-04-09T08:23:27.372Z,79.2
2023-04-09T08:24:27.505Z,79.2
2023-04-09T08:25:27.418Z,79.2
2023-04-09T08:26:27.448Z,79.2
2023-04-09T08:27:27.314Z,79.1
2023-04-09T08:28:27.302Z,79.1
2023-04-09T08:29:27.417Z,79.2
2023-04-09T08:30:27.325Z,79.2
2023-04-09T08:31:27.467Z,79.2
2023-04-09T08:32:27.421Z,79.1
2023-04-09T08:33:28.096Z,79.0
2023-04-09T08:34:27.444Z,79.0
2023-04-09T08:35:27.309Z,79.0
2023-04-09T08:36:27.399Z,79.0
2023-04-09T08:37:27.301Z,78.9
2023-04-09T08:38:27.336Z,78.9
2023-04-09T08:39:27.346Z,78.9
2023-04-09T08:40:27.352Z,78.9
2023-04-09T08:41:27.397Z,79.0
2023-04-09T08:42:27.290Z,79.0
2023-04-09T08:43:41.882Z,79.0
2023-04-09T08:44:27.586Z,79.0
2023-04-09T08:45:27.385Z,79.0
2023-04-09T08:46:27.332Z,79.0
2023-04-09T08:47:27.367Z,78.9
2023-04-09T08:48:27.513Z,78.9
2023-04-09T08:49:27.294Z,78.8
2023-04-09T08:50:27.355Z,78.8
2023-04-09T08:51:27.272Z,78.8
2023-04-09T08:52:27.268Z,78.9
2023-04-09T08:53:27.330Z,78.9
2023-04-09T08:54:27.356Z,78.9
2023-04-09T08:55:27.690Z,78.9
2023-04-09T08:56:27.261Z,78.9
2023-04-09T08:57:27.325Z,78.8
2023-04-09T08:58:27.352Z,78.9
2023-04-09T08:59:27.291Z,78.9
2023-04-09T09:00:27.271Z,78.9
2023-04-09T09:01:27.446Z,79.0
2023-04-09T09:02:27.392Z,79.0
2023-04-09T09:03:27.501Z,78.9
2023-04-09T09:04:27.267Z,79.0
2023-04-09T09:05:27.297Z,79.0
2023-04-09T09:06:27.451Z,79.0
2023-04-09T09:07:27.265Z,79.0
2023-04-09T09:08:27.332Z,79.0
2023-04-09T09:09:28.626Z,79.0
2023-04-09T09:10:27.988Z,79.0
2023-04-09T09:11:27.315Z,79.0
2023-04-09T09:12:27.332Z,79.0
2023-04-09T09:13:27.263Z,79.0
2023-04-09T09:14:27.215Z,79.0
2023-04-09T09:15:27.321Z,78.9
2023-04-09T09:16:27.484Z,78.8
2023-04-09T09:17:27.333Z,78.8
2023-04-09T09:18:27.258Z,78.8
2023-04-09T09:19:27.271Z,78.8
2023-04-09T09:20:27.277Z,78.8
2023-04-09T09:21:27.384Z,78.7
2023-04-09T09:22:27.262Z,78.7
2023-04-09T09:23:27.211Z,78.6
2023-04-09T09:24:27.249Z,78.5
2023-04-09T09:25:27.213Z,78.5
2023-04-09T09:26:27.198Z,78.6
2023-04-09T09:27:27.430Z,78.6
2023-04-09T09:28:27.236Z,78.5
2023-04-09T09:29:27.258Z,78.5
2023-04-09T09:30:27.205Z,78.3
2023-04-09T09:31:27.370Z,78.4
2023-04-09T09:32:27.461Z,78.5
2023-04-09T09:33:27.218Z,78.6
2023-04-09T09:34:27.373Z,78.6
2023-04-09T09:35:27.277Z,78.5
2023-04-09T09:36:27.221Z,78.5
2023-04-09T09:37:27.228Z,78.4
2023-04-09T09:38:27.210Z,78.4
2023-04-09T09:39:27.417Z,78.4
2023-04-09T09:40:27.248Z,78.4
2023-04-09T09:41:27.208Z,78.5
2023-04-09T09:42:27.211Z,78.5
2023-04-09T09:43:27.441Z,78.5
2023-04-09T09:44:27.192Z,78.4
2023-04-09T09:45:27.361Z,78.4
2023-04-09T09:46:27.226Z,78.4
2023-04-09T09:47:27.180Z,78.5
2023-04-09T09:48:28.469Z,78.6
2023-04-09T09:49:27.214Z,78.6
2023-04-09T09:50:27.262Z,78.6
2023-04-09T09:51:27.203Z,78.6
2023-04-09T09:52:27.271Z,78.6
2023-04-09T09:53:27.208Z,78.5
2023-04-09T09:54:27.379Z,78.5
2023-04-09T09:55:27.220Z,78.5
2023-04-09T09:56:27.189Z,78.5
2023-04-09T09:57:27.156Z,78.5
2023-04-09T09:58:27.291Z,78.5
2023-04-09T09:59:27.286Z,78.5
2023-04-09T10:00:27.218Z,78.4
2023-04-09T10:01:27.214Z,78.3
2023-04-09T10:02:27.239Z,78.3
2023-04-09T10:03:27.179Z,78.3
2023-04-09T10:04:27.240Z,78.2
2023-04-09T10:05:27.145Z,78.1
2023-04-09T10:06:27.216Z,78.1
2023-04-09T10:07:27.150Z,78.2
2023-04-09T10:08:27.212Z,78.2
2023-04-09T10:09:27.334Z,78.2
2023-04-09T10:10:27.165Z,78.2
2023-04-09T10:11:27.203Z,78.2
2023-04-09T10:12:27.189Z,78.1
2023-04-09T10:13:27.242Z,78.1
2023-04-09T10:14:27.189Z,78.1
2023-04-09T10:15:27.138Z,78.2
2023-04-09T10:16:27.392Z,78.2
2023-04-09T10:17:27.134Z,78.1
2023-04-09T10:18:27.212Z,78.1
2023-04-09T10:19:27.300Z,78.1
2023-04-09T10:20:27.148Z,78.1
2023-04-09T10:21:27.129Z,78.1
2023-04-09T10:22:27.116Z,78.1
2023-04-09T10:23:27.150Z,78.0
2023-04-09T10:24:27.161Z,78.0
2023-04-09T10:25:27.126Z,78.0
2023-04-09T10:26:27.122Z,78.0
2023-04-09T10:27:27.273Z,78.0
2023-04-09T10:28:27.148Z,78.0
2023-04-09T10:29:27.213Z,78.0
2023-04-09T10:30:27.098Z,78.0
2023-04-09T10:31:27.180Z,78.0
2023-04-09T10:32:27.208Z,78.0
2023-04-09T10:33:27.108Z,77.9
2023-04-09T10:34:27.211Z,77.9
2023-04-09T10:35:27.124Z,77.9
2023-04-09T10:36:27.144Z,77.8
2023-04-09T10:37:27.259Z,77.8
2023-04-09T10:38:27.235Z,77.8
2023-04-09T10:39:27.179Z,77.8
2023-04-09T10:40:27.102Z,77.8
2023-04-09T10:41:27.105Z,77.9
2023-04-09T10:42:27.091Z,77.8
2023-04-09T10:43:27.163Z,77.8
2023-04-09T10:44:27.431Z,77.7
2023-04-09T10:45:27.085Z,77.6
2023-04-09T10:46:27.216Z,77.6
2023-04-09T10:47:27.161Z,77.9
2023-04-09T10:48:27.165Z,77.6
2023-04-09T10:49:27.207Z,77.4
2023-04-09T10:50:27.107Z,77.4
2023-04-09T10:51:27.085Z,77.4
2023-04-09T10:52:27.086Z,77.3
2023-04-09T10:53:27.197Z,77.4
2023-04-09T10:54:27.095Z,77.4
2023-04-09T10:55:27.109Z,77.4
2023-04-09T10:56:27.068Z,77.5
2023-04-09T10:57:27.070Z,77.4
2023-04-09T10:58:27.138Z,77.4
2023-04-09T10:59:27.052Z,77.4
2023-04-09T11:00:27.238Z,77.2
2023-04-09T11:01:27.108Z,77.1
2023-04-09T11:02:27.248Z,77.1
2023-04-09T11:03:27.330Z,77.1
2023-04-09T11:04:27.129Z,77.1
2023-04-09T11:05:27.116Z,76.9
2023-04-09T11:06:27.075Z,76.9
2023-04-09T11:07:27.057Z,76.9
2023-04-09T11:08:27.073Z,76.9
2023-04-09T11:09:27.068Z,76.9
2023-04-09T11:10:27.187Z,76.8
2023-04-09T11:11:27.126Z,76.9
2023-04-09T11:12:27.168Z,76.9
2023-04-09T11:13:27.066Z,76.9
2023-04-09T11:14:27.071Z,76.9
2023-04-09T11:15:27.192Z,76.9
2023-04-09T11:16:29.032Z,77.0
2023-04-09T11:17:27.083Z,76.9
2023-04-09T11:18:27.072Z,76.9
2023-04-09T11:19:27.031Z,76.7
2023-04-09T11:20:27.128Z,76.7
2023-04-09T11:21:27.027Z,76.8
2023-04-09T11:22:27.409Z,76.8
2023-04-09T11:23:27.074Z,76.8
2023-04-09T11:24:27.023Z,76.7
2023-04-09T11:25:27.066Z,76.6
2023-04-09T11:26:26.995Z,76.5
2023-04-09T11:27:27.071Z,76.5
2023-04-09T11:28:27.020Z,76.4
2023-04-09T11:29:27.133Z,76.4
2023-04-09T11:30:27.098Z,76.3
2023-04-09T11:31:27.155Z,76.4
2023-04-09T11:32:27.024Z,76.4
2023-04-09T11:33:26.985Z,76.4
2023-04-09T11:34:27.203Z,76.4
2023-04-09T11:35:27.154Z,76.3
2023-04-09T11:36:26.987Z,76.2
2023-04-09T11:37:27.012Z,76.2
2023-04-09T11:38:27.042Z,76.2
2023-04-09T11:39:27.024Z,76.1
2023-04-09T11:40:27.286Z,75.9
2023-04-09T11:41:26.982Z,75.8
2023-04-09T11:42:27.004Z,75.8
2023-04-09T11:43:27.001Z,75.8
2023-04-09T11:44:27.065Z,75.8
2023-04-09T11:45:27.343Z,75.8
2023-04-09T11:46:27.029Z,75.8
2023-04-09T11:47:27.060Z,75.7
2023-04-09T11:48:27.045Z,75.7
2023-04-09T11:49:27.005Z,75.9
2023-04-09T11:50:26.975Z,75.9
2023-04-09T11:51:27.085Z,75.8
2023-04-09T11:52:27.030Z,75.5
2023-04-09T11:53:27.120Z,75.4
2023-04-09T11:54:27.279Z,75.4
2023-04-09T11:55:27.060Z,75.4
2023-04-09T11:56:27.397Z,75.3
2023-04-09T11:58:27.001Z,74.8
2023-04-09T11:59:26.988Z,75.2
2023-04-09T12:00:26.954Z,75.3
2023-04-09T12:01:27.089Z,75.3
2023-04-09T12:02:27.052Z,75.4
2023-04-09T12:03:27.142Z,75.4
2023-04-09T12:04:27.103Z,75.3
2023-04-09T12:05:27.291Z,75.3
2023-04-09T12:06:27.055Z,75.2
2023-04-09T12:07:26.939Z,75.2
2023-04-09T12:08:27.055Z,75.0
2023-04-09T12:09:26.970Z,74.8
2023-04-09T12:10:27.041Z,75.0
2023-04-09T12:11:26.931Z,75.1
2023-04-09T12:12:27.021Z,75.0
2023-04-09T12:13:26.945Z,74.4
2023-04-09T12:14:26.940Z,74.6
2023-04-09T12:15:27.039Z,74.4
2023-04-09T12:16:26.988Z,74.7
2023-04-09T12:17:27.049Z,74.6
2023-04-09T12:18:27.010Z,74.7
2023-04-09T12:19:27.057Z,74.8
2023-04-09T12:20:27.073Z,74.6
2023-04-09T12:21:26.984Z,74.6
2023-04-09T12:22:27.015Z,74.6
2023-04-09T12:23:27.387Z,74.5
2023-04-09T12:24:26.978Z,74.6
2023-04-09T12:25:26.981Z,74.5
2023-04-09T12:26:26.955Z,74.6
2023-04-09T12:27:27.137Z,74.6
2023-04-09T12:28:27.236Z,74.6
2023-04-09T12:29:26.931Z,74.5
2023-04-09T12:30:26.930Z,74.1
2023-04-09T12:31:27.055Z,74.1
2023-04-09T12:32:26.971Z,73.9
2023-04-09T12:33:26.965Z,73.8
2023-04-09T12:34:27.060Z,74.0
2023-04-09T12:35:26.973Z,74.1
2023-04-09T12:36:26.910Z,74.1
2023-04-09T12:37:27.004Z,74.2
2023-04-09T12:38:27.065Z,74.2
2023-04-09T12:39:27.018Z,74.0
2023-04-09T12:40:26.897Z,73.7
2023-04-09T12:41:26.894Z,73.7
2023-04-09T12:42:26.944Z,73.5
2023-04-09T12:43:27.277Z,73.6
2023-04-09T12:44:27.014Z,73.7
2023-04-09T12:45:26.873Z,73.6
2023-04-09T12:46:26.939Z,73.6
2023-04-09T12:47:26.946Z,73.3
2023-04-09T12:48:26.985Z,73.2
2023-04-09T12:49:26.975Z,73.2
2023-04-09T12:50:26.875Z,72.9
2023-04-09T12:51:26.917Z,73.0
2023-04-09T12:52:27.010Z,72.8
2023-04-09T12:53:26.962Z,72.9
2023-04-09T12:54:26.881Z,73.1
2023-04-09T12:55:27.026Z,73.1
2023-04-09T12:56:28.204Z,73.0
2023-04-09T12:57:26.895Z,73.0
2023-04-09T12:58:26.904Z,72.9
2023-04-09T12:59:26.866Z,72.8
2023-04-09T13:00:27.056Z,72.6
2023-04-09T13:01:27.971Z,72.7
2023-04-09T13:02:27.122Z,72.8
2023-04-09T13:03:27.002Z,72.5
2023-04-09T13:04:27.009Z,72.5
2023-04-09T13:05:26.952Z,72.4
2023-04-09T13:06:26.895Z,72.2
2023-04-09T13:07:26.906Z,72.2
2023-04-09T13:08:27.150Z,72.2
2023-04-09T13:09:26.850Z,72.2
2023-04-09T13:10:26.867Z,72.2
2023-04-09T13:11:26.924Z,72.2
2023-04-09T13:12:26.913Z,72.2
2023-04-09T13:13:26.900Z,71.4
2023-04-09T13:14:26.963Z,71.2
2023-04-09T13:15:26.873Z,71.5
2023-04-09T13:16:26.927Z,71.5
2023-04-09T13:17:27.028Z,71.1
2023-04-09T13:18:26.882Z,71.1
2023-04-09T13:19:26.823Z,71.0
2023-04-09T13:20:27.031Z,70.9